Time;durP1;ratioP1;P1;durP2;ratioP2;P2;SDS_P1;SDS_P2;PMS_P1;PMS_P2;Temp;Humidity;BMP_temperature;BMP_pressure;BME280_temperature;BME280_humidity;BME280_pressure;Samples;Min_cycle;Max_cycle;Signal;HPM_P1;HPM_P2
2021/12/11 00:01:45;;;;;;;7.07;4.07;;;15.90;77.00;;;;;;4940546;28;95926;-45
2021/12/11 00:04:24;;;;;;;6.67;4.30;;;16.00;77.10;;;;;;4948748;28;95655;-45
2021/12/11 00:06:57;;;;;;;8.25;4.65;;;16.00;77.10;;;;;;4947564;28;96327;-43
2021/12/11 00:09:41;;;;;;;6.88;4.32;;;16.00;76.90;;;;;;4946588;28;96284;-43
2021/12/11 00:12:18;;;;;;;5.05;3.75;;;16.10;76.90;;;;;;4947906;28;95803;-43
2021/12/11 00:15:07;;;;;;;6.53;4.10;;;16.10;76.90;;;;;;4944292;28;95301;-44
2021/12/11 00:17:38;;;;;;;6.82;3.97;;;16.10;76.90;;;;;;4942673;28;95845;-43
2021/12/11 00:20:20;;;;;;;4.93;3.63;;;16.10;76.90;;;;;;4947226;28;96247;-43
2021/12/11 00:22:52;;;;;;;4.75;3.50;;;16.20;77.00;;;;;;4948182;28;95826;-39
2021/12/11 00:25:22;;;;;;;;;;;16.20;76.90;;;;;;4947459;28;95854;-41
2021/12/11 00:28:01;;;;;;;5.28;3.28;;;16.20;76.80;;;;;;4948571;28;95470;-46
2021/12/11 00:30:38;;;;;;;6.35;3.58;;;16.20;76.80;;;;;;4941696;28;95918;-45
2021/12/11 00:33:22;;;;;;;5.30;3.40;;;16.20;76.80;;;;;;4947617;28;95738;-44
2021/12/11 00:35:55;;;;;;;6.30;3.00;;;16.30;76.90;;;;;;4937546;28;95683;-41
2021/12/11 00:38:34;;;;;;;6.47;3.28;;;16.30;76.70;;;;;;4940087;28;95617;-39
2021/12/11 00:41:08;;;;;;;6.63;3.30;;;16.30;76.70;;;;;;4946916;28;97904;-44
2021/12/11 00:43:40;;;;;;;4.18;2.78;;;16.30;77.30;;;;;;4945915;28;95522;-43
2021/12/11 00:46:18;;;;;;;4.35;2.80;;;16.30;76.70;;;;;;4940218;28;95828;-43
2021/12/11 00:48:50;;;;;;;5.85;3.05;;;16.30;76.70;;;;;;4949187;28;95768;-44
2021/12/11 00:51:22;;;;;;;4.90;3.20;;;16.40;76.60;;;;;;4948942;28;96254;-43
2021/12/11 00:53:58;;;;;;;5.07;2.80;;;16.40;76.60;;;;;;4948935;28;96064;-40
2021/12/11 00:56:36;;;;;;;5.65;2.97;;;16.40;76.60;;;;;;4943871;28;95228;-41
2021/12/11 00:59:12;;;;;;;4.30;3.20;;;16.50;77.20;;;;;;4945590;28;95353;-40
2021/12/11 01:01:53;;;;;;;3.55;2.80;;;16.50;76.60;;;;;;4940554;28;96713;-41
2021/12/11 01:04:42;;;;;;;4.10;2.75;;;16.50;76.50;;;;;;4947960;28;95323;-42
2021/12/11 01:07:20;;;;;;;3.88;2.65;;;16.60;77.30;;;;;;4947866;28;95796;-43
2021/12/11 01:10:22;;;;;;;3.95;3.00;;;16.50;76.50;;;;;;4947623;28;95748;-45
2021/12/11 01:13:01;;;;;;;5.22;2.50;;;16.50;76.60;;;;;;4942823;28;96624;-43
2021/12/11 01:15:47;;;;;;;4.55;2.72;;;16.60;76.50;;;;;;4943482;28;95872;-43
2021/12/11 01:18:33;;;;;;;4.38;2.80;;;16.60;76.50;;;;;;4952018;28;95889;-45
2021/12/11 01:24:27;;;;;;;3.15;2.33;;;16.60;76.50;;;;;;4950045;28;96768;-43
2021/12/11 01:27:05;;;;;;;3.15;2.67;;;16.70;76.40;;;;;;4945962;28;96343;-46
2021/12/11 01:29:39;;;;;;;4.28;2.55;;;16.70;76.40;;;;;;4951577;28;95479;-42
2021/12/11 01:32:11;;;;;;;3.88;2.95;;;16.70;76.30;;;;;;4946522;28;96094;-44
2021/12/11 01:34:43;;;;;;;4.75;2.40;;;16.80;76.40;;;;;;4947930;28;97278;-43
2021/12/11 01:37:16;;;;;;;2.85;1.88;;;16.80;76.30;;;;;;4936757;28;95868;-43
2021/12/11 01:39:50;;;;;;;4.18;2.50;;;16.80;76.40;;;;;;4941114;28;95870;-45
2021/12/11 01:42:30;;;;;;;2.88;1.83;;;16.80;76.20;;;;;;4951434;28;95817;-41
2021/12/11 01:45:06;;;;;;;3.90;2.22;;;16.90;76.30;;;;;;4949162;28;96571;-41
2021/12/11 01:47:41;;;;;;;4.18;1.85;;;16.90;76.20;;;;;;4945177;28;95819;-45
2021/12/11 01:50:25;;;;;;;3.95;2.10;;;16.90;76.30;;;;;;4952524;28;95212;-42
2021/12/11 01:53:02;;;;;;;5.18;2.22;;;17.00;76.20;;;;;;4945514;28;95904;-43
2021/12/11 01:55:44;;;;;;;4.20;2.83;;;17.00;76.20;;;;;;4947567;28;95877;-39
2021/12/11 01:58:23;;;;;;;2.28;1.85;;;17.00;76.10;;;;;;4950410;28;95828;-43
2021/12/11 02:00:59;;;;;;;2.15;1.80;;;17.00;76.10;;;;;;4941923;28;95544;-42
2021/12/11 02:03:34;;;;;;;2.70;1.80;;;17.10;76.10;;;;;;4949859;28;95753;-41
2021/12/11 02:06:07;;;;;;;2.53;1.55;;;17.10;76.00;;;;;;4949517;28;96064;-41
2021/12/11 02:08:41;;;;;;;2.60;1.77;;;17.10;75.90;;;;;;4950421;28;95791;-44
2021/12/11 02:11:24;;;;;;;2.85;1.83;;;17.10;76.00;;;;;;4950236;28;95652;-42
2021/12/11 02:14:00;;;;;;;3.90;1.90;;;17.10;75.90;;;;;;4949643;28;96108;-42
2021/12/11 02:16:44;;;;;;;2.65;1.88;;;17.20;76.00;;;;;;4944136;28;95924;-42
2021/12/11 02:19:33;;;;;;;3.47;2.17;;;17.20;76.00;;;;;;4948362;28;95980;-44
2021/12/11 02:22:14;;;;;;;2.55;1.77;;;17.20;75.90;;;;;;4941109;28;95667;-41
2021/12/11 02:24:54;;;;;;;2.20;1.90;;;17.30;75.80;;;;;;4950566;28;95874;-44
2021/12/11 02:27:28;;;;;;;2.60;1.70;;;17.30;75.80;;;;;;4948977;28;96101;-44
2021/12/11 02:30:12;;;;;;;2.88;1.85;;;17.30;75.90;;;;;;4949936;28;95676;-44
2021/12/11 02:33:10;;;;;;;5.35;2.00;;;17.30;76.40;;;;;;4948359;28;97143;-42
2021/12/11 02:35:44;;;;;;;4.47;1.95;;;17.30;75.80;;;;;;4937574;28;96032;-44
2021/12/11 02:38:43;;;;;;;2.58;1.60;;;17.30;75.70;;;;;;4939645;28;96503;-42
2021/12/11 02:41:26;;;;;;;2.97;1.63;;;17.40;75.90;;;;;;4949648;28;96235;-42
2021/12/11 02:44:07;;;;;;;3.55;1.85;;;17.40;75.80;;;;;;4944839;28;95501;-43
2021/12/11 02:46:48;;;;;;;3.67;1.77;;;17.40;75.80;;;;;;4946866;28;96356;-45
2021/12/11 02:49:31;;;;;;;3.38;1.83;;;17.40;75.90;;;;;;4944606;28;98317;-42
2021/12/11 02:52:12;;;;;;;3.92;1.98;;;17.50;75.80;;;;;;4948509;28;95958;-44
2021/12/11 02:55:15;;;;;;;3.25;1.73;;;17.50;75.90;;;;;;4950046;28;95690;-43
2021/12/11 02:58:01;;;;;;;2.83;1.33;;;17.60;75.80;;;;;;4949501;28;96461;-44
2021/12/11 03:00:42;;;;;;;1.95;1.45;;;17.60;75.80;;;;;;4946241;28;95861;-43
2021/12/11 03:03:16;;;;;;;3.03;1.63;;;17.60;75.70;;;;;;4948248;28;95769;-42
2021/12/11 03:08:40;;;;;;;2.22;1.30;;;17.60;75.70;;;;;;4946697;28;95280;-43
2021/12/11 03:11:16;;;;;;;1.75;1.50;;;17.70;75.70;;;;;;4948217;28;95865;-43
2021/12/11 03:13:50;;;;;;;2.90;1.48;;;17.70;75.70;;;;;;4948442;28;96550;-40
2021/12/11 03:16:27;;;;;;;3.75;1.50;;;17.80;75.60;;;;;;4947685;28;95642;-43
2021/12/11 03:19:02;;;;;;;2.70;1.40;;;17.80;75.50;;;;;;4948906;28;95916;-41
2021/12/11 03:21:34;;;;;;;2.45;1.42;;;17.80;75.50;;;;;;4948861;28;95940;-39
2021/12/11 03:24:05;;;;;;;;;;;17.80;75.40;;;;;;4948549;28;95622;-44
2021/12/11 03:26:40;;;;;;;2.28;1.02;;;17.80;75.30;;;;;;4948984;28;95203;-41
2021/12/11 03:29:13;;;;;;;1.80;1.17;;;17.90;75.40;;;;;;4949759;28;95895;-40
2021/12/11 03:31:45;;;;;;;2.22;1.50;;;17.90;75.30;;;;;;4942307;28;101857;-46
2021/12/11 03:34:18;;;;;;;;;;;17.90;75.20;;;;;;4949315;28;96281;-45
2021/12/11 03:36:50;;;;;;;1.20;0.93;;;18.00;75.20;;;;;;4936203;28;95913;-43
2021/12/11 03:39:26;;;;;;;3.60;1.40;;;18.00;75.20;;;;;;4946855;28;96062;-42
2021/12/11 03:41:57;;;;;;;2.08;1.00;;;18.00;75.10;;;;;;4946779;28;95933;-44
2021/12/11 03:44:33;;;;;;;1.23;1.13;;;18.00;75.10;;;;;;4948127;28;96113;-40
2021/12/11 03:47:11;;;;;;;3.00;1.45;;;18.10;75.10;;;;;;4939452;28;95858;-39
2021/12/11 03:49:42;;;;;;;2.30;1.13;;;18.10;74.60;;;;;;4946958;28;97821;-42
2021/12/11 03:52:14;;;;;;;1.60;1.23;;;18.10;75.10;;;;;;4946891;28;98479;-44
2021/12/11 03:54:47;;;;;;;1.17;1.00;;;18.20;75.00;;;;;;4949727;28;95807;-44
2021/12/11 03:57:23;;;;;;;2.38;1.63;;;18.10;74.90;;;;;;4948674;28;95708;-43
2021/12/11 03:59:55;;;;;;;1.42;1.05;;;18.20;74.40;;;;;;4947098;28;95715;-44
2021/12/11 04:02:32;;;;;;;1.75;1.05;;;18.20;75.00;;;;;;4943207;28;96722;-44
2021/12/11 04:05:09;;;;;;;2.28;1.40;;;18.20;74.90;;;;;;4946471;28;95825;-46
2021/12/11 04:07:45;;;;;;;2.70;1.20;;;18.30;74.80;;;;;;4948521;28;95955;-45
2021/12/11 04:10:18;;;;;;;0.90;0.80;;;18.30;74.90;;;;;;4949155;28;95841;-44
2021/12/11 04:12:50;;;;;;;1.73;1.10;;;18.30;74.80;;;;;;4947482;28;96056;-43
2021/12/11 04:15:22;;;;;;;3.03;1.20;;;18.30;74.70;;;;;;4941108;28;97901;-43
2021/12/11 04:17:54;;;;;;;1.73;1.20;;;18.30;74.70;;;;;;4946515;28;95913;-44
2021/12/11 04:20:29;;;;;;;2.20;1.13;;;18.40;74.70;;;;;;4948532;28;96102;-45
2021/12/11 04:23:01;;;;;;;1.90;1.10;;;18.40;74.60;;;;;;4948070;28;96574;-44
2021/12/11 04:25:36;;;;;;;2.45;1.25;;;18.40;74.60;;;;;;4947338;28;97042;-40
2021/12/11 04:28:09;;;;;;;1.83;1.20;;;18.50;74.60;;;;;;4946760;28;96002;-42
2021/12/11 04:30:42;;;;;;;2.80;1.30;;;18.50;74.60;;;;;;4940207;28;95336;-43
2021/12/11 04:33:12;;;;;;;2.97;1.10;;;18.50;74.40;;;;;;4946103;28;95994;-40
2021/12/11 04:35:43;;;;;;;0.80;0.80;;;18.50;74.30;;;;;;4939866;28;96329;-42
2021/12/11 04:38:15;;;;;;;1.20;1.10;;;18.50;74.20;;;;;;4939835;28;95480;-44
2021/12/11 04:40:56;;;;;;;1.17;0.80;;;18.50;74.90;;;;;;4948544;28;95658;-42
2021/12/11 04:43:27;;;;;;;1.08;0.95;;;18.60;74.30;;;;;;4947751;28;96291;-46
2021/12/11 04:46:04;;;;;;;1.73;1.00;;;18.60;74.30;;;;;;4942313;28;95836;-47
2021/12/11 04:48:56;;;;;;;1.02;1.02;;;18.60;74.30;;;;;;4948054;28;95748;-42
2021/12/11 04:51:38;;;;;;;2.17;0.85;;;18.60;74.10;;;;;;4949413;28;95815;-43
2021/12/11 04:57:20;;;;;;;1.15;0.68;;;18.70;74.10;;;;;;4952119;28;96143;-42
2021/12/11 05:08:26;;;;;;;1.23;1.10;;;18.80;74.00;;;;;;4950303;28;95869;-46
2021/12/11 05:10:59;;;;;;;2.90;1.27;;;18.80;73.90;;;;;;4950666;28;95466;-42
2021/12/11 05:13:32;;;;;;;0.90;0.90;;;18.80;74.00;;;;;;4951117;28;95800;-42
2021/12/11 05:16:12;;;;;;;1.50;0.80;;;18.90;73.90;;;;;;4948251;28;96347;-44
2021/12/11 05:18:47;;;;;;;0.95;0.80;;;18.90;73.90;;;;;;4950757;28;96053;-44
2021/12/11 05:21:19;;;;;;;1.35;1.10;;;18.90;73.80;;;;;;4948995;28;95837;-40
2021/12/11 05:23:53;;;;;;;1.13;0.70;;;19.00;73.80;;;;;;4948456;28;96119;-43
2021/12/11 05:26:24;;;;;;;1.45;1.10;;;19.00;73.80;;;;;;4950859;28;95881;-44
2021/12/11 05:28:55;;;;;;;3.97;1.58;;;19.00;73.70;;;;;;4950396;28;98009;-44
2021/12/11 05:31:26;;;;;;;1.52;0.80;;;19.00;73.50;;;;;;4943171;28;95822;-43
2021/12/11 05:33:57;;;;;;;1.30;1.10;;;19.00;73.60;;;;;;4950425;28;95836;-44
2021/12/11 05:36:31;;;;;;;2.67;0.85;;;19.00;73.50;;;;;;4935434;28;96072;-44
2021/12/11 05:39:04;;;;;;;4.82;1.15;;;19.10;73.50;;;;;;4943167;28;96013;-41
2021/12/11 05:41:34;;;;;;;1.65;0.90;;;19.10;73.40;;;;;;4950185;28;95648;-43
2021/12/11 05:44:05;;;;;;;1.45;0.80;;;19.10;73.40;;;;;;4950851;28;95478;-46
2021/12/11 05:46:35;;;;;;;1.60;0.80;;;19.10;73.30;;;;;;4946038;28;96175;-41
2021/12/11 05:49:08;;;;;;;1.45;1.00;;;19.10;73.30;;;;;;4951253;28;95422;-47
2021/12/11 05:51:42;;;;;;;1.77;0.88;;;19.10;73.30;;;;;;4949837;28;96207;-43
2021/12/11 05:54:20;;;;;;;0.60;0.60;;;19.20;73.30;;;;;;4951394;28;95614;-41
2021/12/11 05:56:55;;;;;;;0.98;0.88;;;19.20;73.30;;;;;;4932316;28;99057;-42
2021/12/11 05:59:27;;;;;;;0.95;0.80;;;19.20;73.30;;;;;;4950179;28;95889;-41
2021/12/11 06:02:14;;;;;;;2.03;0.90;;;19.20;73.30;;;;;;4944814;28;98533;-43
2021/12/11 06:04:49;;;;;;;2.53;0.93;;;19.30;73.10;;;;;;4949453;28;95869;-46
2021/12/11 06:07:26;;;;;;;1.75;1.10;;;19.20;72.90;;;;;;4948734;28;96699;-43
2021/12/11 06:10:06;;;;;;;1.17;0.90;;;19.20;72.80;;;;;;4950123;28;95545;-47
2021/12/11 06:12:37;;;;;;;1.92;0.90;;;19.20;72.70;;;;;;4948296;28;95891;-47
2021/12/11 06:15:08;;;;;;;;;;;19.20;72.80;;;;;;4951099;28;95689;-43
2021/12/11 06:17:42;;;;;;;0.67;0.67;;;19.20;72.70;;;;;;4945890;28;97995;-46
2021/12/11 06:20:20;;;;;;;1.15;0.60;;;19.30;72.80;;;;;;4949150;28;96049;-44
2021/12/11 06:22:51;;;;;;;2.95;1.13;;;19.30;72.60;;;;;;4950822;28;97296;-40
2021/12/11 06:25:28;;;;;;;1.80;0.95;;;19.30;72.70;;;;;;4950174;28;95986;-40
2021/12/11 06:27:58;;;;;;;4.57;1.05;;;19.30;72.70;;;;;;4948770;28;96444;-45
2021/12/11 06:30:29;;;;;;;;;;;19.40;72.70;;;;;;4944075;28;99186;-45
2021/12/11 06:33:00;;;;;;;1.27;0.73;;;19.40;73.30;;;;;;4951521;28;95695;-42
2021/12/11 06:35:36;;;;;;;2.25;1.00;;;19.40;72.70;;;;;;4942166;28;95889;-42
2021/12/11 06:38:09;;;;;;;0.98;0.70;;;19.40;72.60;;;;;;4938284;28;95887;-43
2021/12/11 06:40:40;;;;;;;1.75;0.70;;;19.50;72.50;;;;;;4947622;28;95758;-42
2021/12/11 06:43:11;;;;;;;2.20;0.82;;;19.50;72.60;;;;;;4949806;28;95651;-44
2021/12/11 06:45:42;;;;;;;1.00;0.90;;;19.50;72.50;;;;;;4943896;28;96026;-44
2021/12/11 06:48:15;;;;;;;0.77;0.77;;;19.50;72.40;;;;;;4950726;28;96454;-41
2021/12/11 06:50:47;;;;;;;1.45;0.73;;;19.50;72.50;;;;;;4954747;28;95282;-45
2021/12/11 06:53:42;;;;;;;0.77;0.75;;;19.50;72.40;;;;;;4951321;28;95722;-46
2021/12/11 06:56:18;;;;;;;0.77;0.75;;;19.50;72.30;;;;;;4946324;28;95313;-45
2021/12/11 06:58:51;;;;;;;1.83;0.77;;;19.60;72.30;;;;;;4950491;28;96510;-46
2021/12/11 07:01:25;;;;;;;0.77;0.63;;;19.60;72.40;;;;;;4943098;28;95742;-42
2021/12/11 07:03:59;;;;;;;0.63;0.63;;;19.60;72.20;;;;;;4949235;28;96648;-43
2021/12/11 07:06:32;;;;;;;0.80;0.80;;;19.60;72.30;;;;;;4949439;28;95805;-41
2021/12/11 07:09:04;;;;;;;1.10;0.70;;;19.60;72.20;;;;;;4949953;28;99023;-43
2021/12/11 07:11:39;;;;;;;0.80;0.75;;;19.60;72.20;;;;;;4948588;28;95380;-44
2021/12/11 07:14:14;;;;;;;1.67;0.73;;;19.60;72.10;;;;;;4949633;28;95226;-43
2021/12/11 07:16:47;;;;;;;2.28;0.90;;;19.60;72.00;;;;;;4939936;28;95708;-43
2021/12/11 07:19:20;;;;;;;1.40;0.95;;;19.70;72.10;;;;;;4948096;28;95917;-40
2021/12/11 07:21:51;;;;;;;0.77;0.70;;;19.70;72.10;;;;;;4948370;28;95693;-44
2021/12/11 07:24:27;;;;;;;1.38;0.88;;;19.70;72.00;;;;;;4950098;28;95747;-44
2021/12/11 07:27:02;;;;;;;0.55;0.55;;;19.70;72.00;;;;;;4949792;28;95470;-44
2021/12/11 07:29:36;;;;;;;0.88;0.70;;;19.70;72.00;;;;;;4948529;28;96157;-42
2021/12/11 07:32:08;;;;;;;1.35;0.80;;;19.70;72.00;;;;;;4942724;28;95984;-42
2021/12/11 07:34:37;;;;;;;;;;;19.80;71.90;;;;;;4946942;28;95436;-41
2021/12/11 07:37:09;;;;;;;2.22;0.70;;;19.80;72.00;;;;;;4932477;28;99809;-42
2021/12/11 07:39:45;;;;;;;2.65;0.60;;;19.80;71.90;;;;;;4949111;28;95867;-43
2021/12/11 07:42:14;;;;;;;;;;;19.80;71.90;;;;;;4949279;28;96456;-41
2021/12/11 07:44:46;;;;;;;1.70;1.15;;;19.80;71.80;;;;;;4949749;28;95659;-41
2021/12/11 07:47:16;;;;;;;1.05;0.80;;;19.80;71.80;;;;;;4945586;28;95475;-46
2021/12/11 07:49:46;;;;;;;1.42;0.63;;;19.80;71.80;;;;;;4949641;28;96112;-45
2021/12/11 07:52:16;;;;;;;1.17;0.68;;;19.80;71.80;;;;;;4948422;28;95465;-46
2021/12/11 07:54:46;;;;;;;1.35;1.10;;;19.80;71.60;;;;;;4949495;28;95698;-44
2021/12/11 07:57:17;;;;;;;;;;;19.80;71.80;;;;;;4950297;28;95830;-42
2021/12/11 07:59:48;;;;;;;1.00;0.90;;;19.80;71.60;;;;;;4949438;28;98190;-45
2021/12/11 08:02:19;;;;;;;;;;;19.90;71.70;;;;;;4943790;28;95722;-42
2021/12/11 08:04:51;;;;;;;3.17;1.08;;;19.80;71.40;;;;;;4951358;28;97144;-43
2021/12/11 08:07:23;;;;;;;3.22;0.68;;;19.90;71.60;;;;;;4949239;28;95632;-43
2021/12/11 08:09:52;;;;;;;;;;;19.80;71.60;;;;;;4947294;28;96010;-44
2021/12/11 08:12:23;;;;;;;0.52;0.52;;;19.80;71.60;;;;;;4949243;28;95692;-43
2021/12/11 08:14:54;;;;;;;1.08;0.70;;;19.80;71.40;;;;;;4947754;28;95671;-44
2021/12/11 08:17:26;;;;;;;0.80;0.75;;;19.90;71.60;;;;;;4941935;28;96061;-44
2021/12/11 08:19:56;;;;;;;1.75;0.73;;;19.90;71.60;;;;;;4948818;28;96286;-43
2021/12/11 08:22:27;;;;;;;;;;;19.90;71.60;;;;;;4948156;28;95844;-40
2021/12/11 08:24:57;;;;;;;0.77;0.77;;;19.90;71.50;;;;;;4949664;28;98013;-43
2021/12/11 08:27:28;;;;;;;0.75;0.68;;;19.90;71.60;;;;;;4949584;28;97809;-43
2021/12/11 08:30:01;;;;;;;0.68;0.60;;;19.90;71.50;;;;;;4952093;28;96963;-45
2021/12/11 08:32:32;;;;;;;1.35;0.55;;;19.90;71.50;;;;;;4946660;28;96341;-41
2021/12/11 08:35:03;;;;;;;1.15;0.50;;;19.90;71.60;;;;;;4947114;28;95979;-43
2021/12/11 08:37:33;;;;;;;0.50;0.50;;;19.90;71.60;;;;;;4941206;28;95417;-43
2021/12/11 08:40:09;;;;;;;1.83;0.70;;;19.90;71.40;;;;;;4950066;28;96055;-44
2021/12/11 08:42:39;;;;;;;2.45;0.75;;;19.90;71.50;;;;;;4948527;28;95842;-46
2021/12/11 08:45:20;;;;;;;0.87;0.57;;;19.90;71.50;;;;;;4944064;28;95860;-40
2021/12/11 08:47:58;;;;;;;1.35;0.90;;;19.90;71.50;;;;;;4952607;28;95471;-42
2021/12/11 08:50:32;;;;;;;0.57;0.45;;;19.90;71.40;;;;;;4954291;28;96636;-44
2021/12/11 08:53:03;;;;;;;1.00;0.80;;;19.80;71.50;;;;;;4953300;28;95670;-44
2021/12/11 08:55:40;;;;;;;0.70;0.70;;;19.90;71.50;;;;;;4950761;28;97537;-41
2021/12/11 08:58:16;;;;;;;1.23;0.75;;;19.80;71.40;;;;;;4950704;28;95810;-40
2021/12/11 09:01:18;;;;;;;0.57;0.43;;;19.80;71.50;;;;;;4945990;28;96330;-41
2021/12/11 09:04:15;;;;;;;2.05;0.55;;;19.80;71.50;;;;;;4951790;28;95644;-41
2021/12/11 09:06:52;;;;;;;1.05;0.47;;;19.80;71.40;;;;;;4951967;28;95714;-41
2021/12/11 09:09:26;;;;;;;0.85;0.70;;;19.80;71.40;;;;;;4950838;28;95773;-46
2021/12/11 09:12:12;;;;;;;0.55;0.35;;;19.80;71.40;;;;;;4950977;28;96341;-43
2021/12/11 09:15:02;;;;;;;1.58;0.68;;;19.80;71.30;;;;;;4949659;28;95900;-44
2021/12/11 09:18:01;;;;;;;0.70;0.70;;;19.80;71.30;;;;;;4949171;28;96030;-41
2021/12/11 09:20:41;;;;;;;1.73;0.90;;;19.80;71.30;;;;;;4950199;28;95616;-43
2021/12/11 09:23:16;;;;;;;2.78;0.95;;;19.80;71.30;;;;;;4950923;28;95903;-44
2021/12/11 09:26:06;;;;;;;1.92;0.80;;;19.70;71.80;;;;;;4951139;28;96032;-43
2021/12/11 09:28:41;;;;;;;3.35;1.33;;;19.70;71.10;;;;;;4947620;28;95243;-44
2021/12/11 09:31:13;;;;;;;1.80;1.13;;;19.70;70.90;;;;;;4945542;28;95474;-45
2021/12/11 09:33:52;;;;;;;1.23;0.82;;;19.70;71.00;;;;;;4949566;28;95932;-41
2021/12/11 09:36:35;;;;;;;1.35;0.95;;;19.60;70.90;;;;;;4936220;28;96314;-45
2021/12/11 09:39:12;;;;;;;1.23;0.90;;;19.60;71.00;;;;;;4945695;28;95485;-42
2021/12/11 09:41:42;;;;;;;2.10;1.05;;;19.60;71.00;;;;;;4949839;28;96370;-41
2021/12/11 09:44:19;;;;;;;1.55;0.85;;;19.60;71.00;;;;;;4951396;28;96433;-45
2021/12/11 09:47:07;;;;;;;1.63;0.80;;;19.60;70.90;;;;;;4946444;28;95601;-40
2021/12/11 09:49:47;;;;;;;1.35;1.20;;;19.60;70.90;;;;;;4950360;28;95871;-46
2021/12/11 09:52:23;;;;;;;2.65;0.70;;;19.60;70.90;;;;;;4950811;28;95575;-44
2021/12/11 09:55:17;;;;;;;2.03;0.77;;;19.60;70.80;;;;;;4951720;28;96030;-45
2021/12/11 09:57:53;;;;;;;1.77;1.20;;;19.50;70.70;;;;;;4950326;28;95580;-44
2021/12/11 10:00:33;;;;;;;1.60;1.20;;;19.50;70.80;;;;;;4944558;28;95730;-44
2021/12/11 10:03:07;;;;;;;1.42;0.70;;;19.50;70.90;;;;;;4951733;28;95658;-43
2021/12/11 10:05:45;;;;;;;1.05;0.85;;;19.50;70.70;;;;;;4949531;28;96133;-43
2021/12/11 10:11:16;;;;;;;3.27;1.17;;;19.40;70.70;;;;;;4950183;28;95970;-41
2021/12/11 10:13:53;;;;;;;1.88;0.95;;;19.40;70.90;;;;;;4950558;28;95600;-45
2021/12/11 10:16:29;;;;;;;0.98;0.82;;;19.40;70.80;;;;;;4944872;28;96529;-46
2021/12/11 10:19:01;;;;;;;3.80;1.15;;;19.40;70.90;;;;;;4949378;28;95443;-46
2021/12/11 10:21:38;;;;;;;1.13;0.70;;;19.40;70.90;;;;;;4949738;28;95929;-41
2021/12/11 10:24:13;;;;;;;1.23;1.00;;;19.30;70.80;;;;;;4948825;28;96001;-42
2021/12/11 10:26:43;;;;;;;2.45;1.05;;;19.30;70.60;;;;;;4950715;28;96939;-44
2021/12/11 10:29:16;;;;;;;2.35;1.05;;;19.30;70.70;;;;;;4950002;28;95404;-42
2021/12/11 10:31:52;;;;;;;3.83;1.63;;;19.20;70.80;;;;;;4940652;28;95783;-43
2021/12/11 10:34:26;;;;;;;3.25;1.45;;;19.30;70.80;;;;;;4949285;28;95921;-44
2021/12/11 10:37:13;;;;;;;1.98;0.80;;;19.20;70.70;;;;;;4933537;28;97326;-45
2021/12/11 10:39:48;;;;;;;1.17;1.02;;;19.20;70.70;;;;;;4948613;28;96850;-45
2021/12/11 10:42:19;;;;;;;2.38;1.23;;;19.20;70.80;;;;;;4949963;28;96139;-41
2021/12/11 10:45:00;;;;;;;3.33;1.45;;;19.20;70.80;;;;;;4950784;28;95681;-43
2021/12/11 10:47:38;;;;;;;1.73;1.08;;;19.10;70.70;;;;;;4945903;28;96395;-44
2021/12/11 10:50:45;;;;;;;2.40;1.77;;;19.10;70.90;;;;;;4951386;28;95792;-42
2021/12/11 10:53:19;;;;;;;2.38;1.27;;;19.10;70.90;;;;;;4944725;28;95763;-41
2021/12/11 10:55:53;;;;;;;2.20;1.20;;;19.10;71.10;;;;;;4949349;28;95811;-41
2021/12/11 10:58:31;;;;;;;2.08;1.60;;;19.10;71.10;;;;;;4949221;28;96972;-41
2021/12/11 11:01:11;;;;;;;1.42;1.20;;;19.00;70.90;;;;;;4943757;28;95871;-41
2021/12/11 11:03:54;;;;;;;2.90;1.38;;;19.00;70.90;;;;;;4950013;28;95542;-44
2021/12/11 11:06:26;;;;;;;1.75;1.33;;;19.00;70.90;;;;;;4950138;28;96065;-40
2021/12/11 11:08:58;;;;;;;1.75;1.30;;;19.00;71.00;;;;;;4948414;28;96207;-41
2021/12/11 11:11:35;;;;;;;3.63;1.58;;;19.00;70.90;;;;;;4948582;28;95838;-45
2021/12/11 11:14:09;;;;;;;1.98;1.10;;;19.00;71.00;;;;;;4947910;28;95929;-43
2021/12/11 11:16:57;;;;;;;2.22;1.10;;;18.90;71.20;;;;;;4939160;28;96094;-44
2021/12/11 11:19:31;;;;;;;2.25;1.25;;;18.90;71.30;;;;;;4949738;28;98672;-46
2021/12/11 11:22:07;;;;;;;2.95;1.08;;;18.90;71.20;;;;;;4949002;28;95365;-44
2021/12/11 11:24:44;;;;;;;1.40;0.98;;;18.90;71.40;;;;;;4949776;28;95185;-41
2021/12/11 11:27:16;;;;;;;2.40;1.15;;;18.90;71.50;;;;;;4948992;28;95703;-43
2021/12/11 11:29:48;;;;;;;1.77;1.15;;;18.90;71.30;;;;;;4946367;28;96762;-41
2021/12/11 11:32:31;;;;;;;3.00;1.27;;;18.80;71.50;;;;;;4941317;28;97086;-39
2021/12/11 11:35:15;;;;;;;2.13;1.20;;;18.80;71.60;;;;;;4941246;28;96110;-42
2021/12/11 11:37:50;;;;;;;3.05;1.15;;;18.80;71.50;;;;;;4936915;28;96071;-42
2021/12/11 11:40:26;;;;;;;1.08;0.90;;;18.80;71.50;;;;;;4949793;28;96249;-41
2021/12/11 11:42:59;;;;;;;2.15;1.20;;;18.80;71.80;;;;;;4944213;28;95695;-44
2021/12/11 11:45:31;;;;;;;1.85;1.10;;;18.70;71.90;;;;;;4942660;28;95994;-43
2021/12/11 11:48:03;;;;;;;1.65;1.10;;;18.80;71.80;;;;;;4949763;28;95703;-40
2021/12/11 11:50:40;;;;;;;3.25;1.20;;;18.70;71.80;;;;;;4950983;28;95846;-41
2021/12/11 11:53:13;;;;;;;1.92;1.23;;;18.70;71.80;;;;;;4950166;28;95942;-40
2021/12/11 11:55:48;;;;;;;1.80;1.02;;;18.70;72.00;;;;;;4948698;28;95524;-44
2021/12/11 11:58:20;;;;;;;1.67;0.90;;;18.70;72.00;;;;;;4948475;28;95829;-43
2021/12/11 12:01:20;;;;;;;1.88;0.98;;;18.70;72.00;;;;;;4942962;28;97014;-41
2021/12/11 12:03:52;;;;;;;2.88;1.40;;;18.60;71.90;;;;;;4945969;28;95529;-46
2021/12/11 12:06:31;;;;;;;2.35;1.38;;;18.60;71.80;;;;;;4949136;28;95222;-42
2021/12/11 12:09:05;;;;;;;1.30;1.02;;;18.60;72.10;;;;;;4950141;28;95852;-42
2021/12/11 12:11:39;;;;;;;1.80;1.17;;;18.60;72.20;;;;;;4946988;28;96875;-39
2021/12/11 12:14:19;;;;;;;2.03;1.63;;;18.60;72.10;;;;;;4946977;28;96703;-43
2021/12/11 12:16:52;;;;;;;2.80;1.20;;;18.50;72.10;;;;;;4943155;28;95706;-42
2021/12/11 12:19:25;;;;;;;1.65;1.17;;;18.50;72.20;;;;;;4949209;28;95686;-43
2021/12/11 12:22:02;;;;;;;2.33;1.08;;;18.50;72.20;;;;;;4948273;28;95950;-44
2021/12/11 12:24:35;;;;;;;1.45;1.10;;;18.50;72.40;;;;;;4948388;28;95823;-45
2021/12/11 12:27:11;;;;;;;1.38;1.00;;;18.50;72.40;;;;;;4946099;28;95949;-41
2021/12/11 12:29:45;;;;;;;1.02;0.70;;;18.40;72.40;;;;;;4946122;28;95602;-41
2021/12/11 12:32:26;;;;;;;1.88;1.05;;;18.40;72.50;;;;;;4940949;28;96825;-39
2021/12/11 12:35:01;;;;;;;1.17;0.90;;;18.40;72.60;;;;;;4944195;28;96080;-42
2021/12/11 12:37:32;;;;;;;1.50;0.90;;;18.30;72.50;;;;;;4933079;28;95880;-42
2021/12/11 12:40:06;;;;;;;1.67;0.90;;;18.30;72.60;;;;;;4948257;28;95990;-43
2021/12/11 12:42:52;;;;;;;1.10;0.85;;;18.40;72.70;;;;;;4943777;28;95908;-43
2021/12/11 12:45:38;;;;;;;2.08;1.20;;;18.30;72.70;;;;;;4941878;28;95891;-45
2021/12/11 12:48:13;;;;;;;1.40;1.00;;;18.30;72.80;;;;;;4948150;28;95805;-44
2021/12/11 12:50:59;;;;;;;2.45;1.10;;;18.30;72.80;;;;;;4952934;28;96044;-44
2021/12/11 12:53:33;;;;;;;1.35;0.90;;;18.30;72.80;;;;;;4949330;28;95995;-42
2021/12/11 12:56:12;;;;;;;1.67;1.17;;;18.20;72.80;;;;;;4949362;28;96197;-43
2021/12/11 12:59:20;;;;;;;3.10;1.75;;;18.20;72.70;;;;;;4948071;28;95755;-42
2021/12/11 13:02:23;;;;;;;1.83;1.50;;;18.20;72.70;;;;;;4938175;28;95537;-39
2021/12/11 13:05:20;;;;;;;2.20;1.50;;;18.20;72.80;;;;;;4946585;28;96223;-46
2021/12/11 13:08:07;;;;;;;1.73;1.25;;;18.20;72.90;;;;;;4943780;28;95794;-42
2021/12/11 13:10:43;;;;;;;2.67;1.48;;;18.20;72.90;;;;;;4948468;28;95863;-42
2021/12/11 13:13:16;;;;;;;2.55;1.55;;;18.10;72.80;;;;;;4950466;28;95320;-41
2021/12/11 13:15:56;;;;;;;4.90;1.70;;;18.10;72.90;;;;;;4947241;28;95973;-43
2021/12/11 13:18:33;;;;;;;2.20;1.33;;;18.10;72.90;;;;;;4950987;28;96244;-43
2021/12/11 13:21:13;;;;;;;4.45;1.95;;;18.10;72.90;;;;;;4949589;28;95876;-43
2021/12/11 13:23:47;;;;;;;2.70;1.83;;;18.00;73.00;;;;;;4951476;28;96068;-41
2021/12/11 13:26:21;;;;;;;3.05;1.98;;;18.00;73.00;;;;;;4947717;28;96080;-40
2021/12/11 13:28:58;;;;;;;3.15;1.92;;;18.00;73.00;;;;;;4950516;28;95967;-43
2021/12/11 13:31:36;;;;;;;3.47;1.88;;;18.00;73.10;;;;;;4945433;28;95962;-41
2021/12/11 13:34:08;;;;;;;2.97;1.60;;;18.00;72.90;;;;;;4950735;28;95966;-41
2021/12/11 13:36:38;;;;;;;3.22;1.85;;;18.00;72.90;;;;;;4933894;28;95890;-43
2021/12/11 13:39:12;;;;;;;2.80;1.80;;;18.00;73.60;;;;;;4946143;28;96067;-41
2021/12/11 13:41:47;;;;;;;3.10;2.40;;;17.90;73.00;;;;;;4950863;28;97858;-43
2021/12/11 13:44:22;;;;;;;2.78;1.90;;;17.90;73.00;;;;;;4948482;28;95764;-42
2021/12/11 13:46:52;;;;;;;3.50;2.70;;;17.90;73.00;;;;;;4944859;28;99029;-44
2021/12/11 13:49:22;;;;;;;2.78;2.17;;;17.90;73.10;;;;;;4950624;28;95762;-45
2021/12/11 13:51:52;;;;;;;2.70;1.92;;;17.90;73.10;;;;;;4951627;28;95305;-44
2021/12/11 13:54:25;;;;;;;2.87;2.07;;;17.80;73.10;;;;;;4950041;28;95695;-44
2021/12/11 13:57:06;;;;;;;3.88;2.05;;;17.80;73.00;;;;;;4950372;28;96630;-41
2021/12/11 13:59:37;;;;;;;3.22;2.17;;;17.80;73.10;;;;;;4950259;28;96144;-43